createdAt,value
2023-05-25T00:01:07.850Z,7.10
2023-05-25T00:03:36.202Z,7.32
2023-05-25T00:06:03.600Z,7.30
2023-05-25T00:08:41.554Z,7.63
2023-05-25T00:11:08.551Z,7.90
2023-05-25T00:13:35.672Z,8.00
2023-05-25T00:16:02.645Z,7.60
2023-05-25T00:18:29.634Z,7.18
2023-05-25T00:20:57.071Z,7.40
2023-05-25T00:23:24.129Z,7.40
2023-05-25T00:25:51.135Z,7.82
2023-05-25T00:28:18.219Z,7.78
2023-05-25T00:30:45.422Z,7.88
2023-05-25T00:33:13.103Z,7.80
2023-05-25T00:35:40.071Z,8.38
2023-05-25T00:38:06.992Z,7.97
2023-05-25T00:40:35.494Z,7.50
2023-05-25T00:43:02.889Z,7.72
2023-05-25T00:45:29.894Z,8.07
2023-05-25T00:47:58.001Z,8.25
2023-05-25T00:50:40.631Z,8.18
2023-05-25T00:53:09.982Z,7.97
2023-05-25T00:55:50.599Z,8.15
2023-05-25T00:58:21.879Z,7.75
2023-05-25T01:00:53.606Z,8.10
2023-05-25T01:03:22.762Z,8.05
2023-05-25T01:05:53.107Z,8.45
2023-05-25T01:08:22.827Z,8.50
2023-05-25T01:10:52.063Z,9.30
2023-05-25T01:13:21.043Z,8.65
2023-05-25T01:15:48.926Z,8.52
2023-05-25T01:18:17.958Z,9.02
2023-05-25T01:21:02.849Z,9.07
2023-05-25T01:24:13.158Z,9.20
2023-05-25T01:26:50.467Z,9.27
2023-05-25T01:29:19.260Z,9.18
2023-05-25T01:31:47.410Z,9.80
2023-05-25T01:34:15.532Z,9.38
2023-05-25T01:36:44.727Z,9.63
2023-05-25T01:39:12.795Z,9.75
2023-05-25T01:41:39.751Z,10.07
2023-05-25T01:44:07.836Z,10.02
2023-05-25T01:46:41.607Z,9.85
2023-05-25T01:49:23.867Z,10.02
2023-05-25T01:52:20.845Z,10.87
2023-05-25T01:54:55.158Z,10.00
2023-05-25T01:57:22.829Z,10.15
2023-05-25T01:59:53.164Z,10.50
2023-05-25T02:02:20.636Z,10.10
2023-05-25T02:04:48.177Z,10.02
2023-05-25T02:07:15.201Z,10.32
2023-05-25T02:09:42.095Z,9.40
2023-05-25T02:12:09.422Z,10.73
2023-05-25T02:14:36.394Z,11.25
2023-05-25T02:17:03.984Z,10.27
2023-05-25T02:19:31.029Z,11.10
2023-05-25T02:22:00.458Z,10.93
2023-05-25T02:24:27.613Z,11.20
2023-05-25T02:26:55.042Z,10.18
2023-05-25T02:29:22.057Z,10.65
2023-05-25T02:31:49.541Z,10.70
2023-05-25T02:34:16.657Z,10.07
2023-05-25T02:36:45.150Z,10.20
2023-05-25T02:39:12.232Z,9.77
2023-05-25T02:41:39.403Z,9.95
2023-05-25T02:44:06.856Z,9.95
2023-05-25T02:46:34.396Z,9.68
2023-05-25T02:49:01.426Z,9.65
2023-05-25T02:51:28.958Z,10.18
2023-05-25T02:53:55.981Z,9.93
2023-05-25T02:56:23.094Z,9.55
2023-05-25T02:58:50.818Z,10.23
2023-05-25T03:01:20.858Z,10.60
2023-05-25T03:03:52.599Z,9.73
2023-05-25T03:06:21.619Z,9.30
2023-05-25T03:08:49.082Z,8.80
2023-05-25T03:11:16.170Z,9.70
2023-05-25T03:13:43.160Z,9.60
2023-05-25T03:16:10.113Z,9.02
2023-05-25T03:18:37.240Z,7.97
2023-05-25T03:21:04.406Z,9.43
2023-05-25T03:23:32.612Z,8.85
2023-05-25T03:26:00.454Z,9.52
2023-05-25T03:28:27.549Z,9.88
2023-05-25T03:30:54.606Z,9.88
2023-05-25T03:33:21.606Z,9.50
2023-05-25T03:35:48.867Z,10.05
2023-05-25T03:38:16.072Z,9.82
2023-05-25T03:40:43.025Z,9.57
2023-05-25T03:43:10.329Z,9.13
2023-05-25T03:45:37.293Z,10.13
2023-05-25T03:48:04.616Z,10.43
2023-05-25T03:50:31.878Z,10.90
2023-05-25T03:52:58.957Z,11.00
2023-05-25T03:55:25.946Z,9.85
2023-05-25T03:57:52.940Z,9.35
2023-05-25T04:00:20.005Z,9.98
2023-05-25T04:02:47.022Z,9.80
2023-05-25T04:05:14.200Z,10.63
2023-05-25T04:07:41.199Z,9.38
2023-05-25T04:10:09.102Z,9.45
2023-05-25T04:12:36.355Z,9.60
2023-05-25T04:15:05.511Z,9.85
2023-05-25T04:17:32.508Z,9.63
2023-05-25T04:19:59.792Z,9.32
2023-05-25T04:22:26.705Z,9.43
2023-05-25T04:24:54.028Z,8.73
2023-05-25T04:27:22.211Z,9.45
2023-05-25T04:29:50.272Z,8.93
2023-05-25T04:32:18.752Z,10.65
2023-05-25T04:34:46.955Z,9.77
2023-05-25T04:37:14.061Z,8.88
2023-05-25T04:39:41.089Z,9.07
2023-05-25T04:42:12.922Z,9.50
2023-05-25T04:44:40.256Z,9.75
2023-05-25T04:47:08.033Z,10.02
2023-05-25T04:49:35.678Z,9.38
2023-05-25T04:52:03.230Z,9.77
2023-05-25T04:54:30.379Z,9.68
2023-05-25T04:56:57.386Z,10.20
2023-05-25T04:59:24.325Z,12.00
2023-05-25T05:01:51.444Z,11.13
2023-05-25T05:04:18.660Z,9.95
2023-05-25T05:06:46.241Z,10.98
2023-05-25T05:09:13.300Z,10.75
2023-05-25T05:11:40.550Z,11.15
2023-05-25T05:14:07.674Z,10.70
2023-05-25T05:16:35.347Z,10.38
2023-05-25T05:19:03.348Z,9.82
2023-05-25T05:21:30.350Z,10.30
2023-05-25T05:23:57.581Z,9.95
2023-05-25T05:26:24.599Z,9.40
2023-05-25T05:28:52.724Z,10.45
2023-05-25T05:31:19.923Z,9.50
2023-05-25T05:33:47.270Z,10.43
2023-05-25T05:36:14.257Z,9.70
2023-05-25T05:38:41.590Z,10.15
2023-05-25T05:41:14.149Z,8.98
2023-05-25T05:43:42.950Z,10.02
2023-05-25T05:46:12.986Z,9.70
2023-05-25T05:48:40.004Z,9.27
2023-05-25T05:51:07.529Z,9.90
2023-05-25T05:53:35.499Z,10.27
2023-05-25T05:56:03.766Z,9.50
2023-05-25T05:58:32.406Z,9.38
2023-05-25T06:01:00.395Z,8.68
2023-05-25T06:03:31.230Z,8.75
2023-05-25T06:05:59.930Z,9.13
2023-05-25T06:08:27.635Z,8.45
2023-05-25T06:10:56.044Z,7.05
2023-05-25T06:13:23.048Z,7.70
2023-05-25T06:15:51.596Z,7.05
2023-05-25T06:18:18.569Z,6.65
2023-05-25T06:20:45.742Z,6.65
2023-05-25T06:23:15.190Z,6.10
2023-05-25T06:25:42.490Z,7.00
2023-05-25T06:28:10.289Z,6.25
2023-05-25T06:30:37.704Z,5.85
2023-05-25T06:33:04.896Z,5.53
2023-05-25T06:35:32.418Z,5.15
2023-05-25T06:37:59.892Z,5.00
2023-05-25T06:40:26.939Z,5.63
2023-05-25T06:42:53.979Z,5.13
2023-05-25T06:45:21.957Z,5.22
2023-05-25T06:47:48.869Z,5.40
2023-05-25T06:50:16.875Z,5.35
2023-05-25T06:52:44.512Z,5.30
2023-05-25T06:55:11.774Z,4.80
2023-05-25T06:57:38.944Z,5.53
2023-05-25T07:00:10.761Z,5.15
2023-05-25T07:02:39.040Z,4.82
2023-05-25T07:05:09.414Z,5.47
2023-05-25T07:07:36.388Z,4.85
2023-05-25T07:10:06.884Z,5.25
2023-05-25T07:12:34.599Z,4.63
2023-05-25T07:15:01.625Z,4.28
2023-05-25T07:17:31.590Z,4.38
2023-05-25T07:20:01.139Z,4.50
2023-05-25T07:22:30.729Z,3.38
2023-05-25T07:24:57.909Z,3.85
2023-05-25T07:27:27.986Z,3.80
2023-05-25T07:30:07.186Z,4.18
2023-05-25T07:32:36.349Z,4.15
2023-05-25T07:35:04.233Z,4.22
2023-05-25T07:37:31.204Z,3.53
2023-05-25T07:39:58.260Z,4.18
2023-05-25T07:42:25.465Z,4.18
2023-05-25T07:44:52.938Z,3.83
2023-05-25T07:47:19.941Z,3.65
2023-05-25T07:49:46.858Z,3.90
2023-05-25T07:52:13.857Z,4.10
2023-05-25T07:54:42.293Z,4.15
2023-05-25T07:57:10.104Z,3.72
2023-05-25T07:59:37.154Z,4.18
2023-05-25T08:02:13.769Z,4.05
2023-05-25T08:04:41.132Z,4.18
2023-05-25T08:07:08.383Z,4.30
2023-05-25T08:09:35.369Z,4.38
2023-05-25T08:12:24.026Z,4.50
2023-05-25T08:14:49.491Z,4.65
2023-05-25T08:17:25.800Z,4.30
2023-05-25T08:19:54.619Z,4.00
2023-05-25T08:22:22.780Z,4.38
2023-05-25T08:24:49.994Z,4.18
2023-05-25T08:27:16.973Z,4.30
2023-05-25T08:29:44.044Z,4.18
2023-05-25T08:32:11.093Z,4.35
2023-05-25T08:34:38.053Z,4.80
2023-05-25T08:37:05.304Z,3.92
2023-05-25T08:39:34.096Z,3.80
2023-05-25T08:42:02.186Z,4.15
2023-05-25T08:44:29.446Z,4.18
2023-05-25T08:46:58.303Z,4.65
2023-05-25T08:49:27.420Z,4.35
2023-05-25T08:51:55.933Z,4.90
2023-05-25T08:54:36.449Z,4.72
2023-05-25T08:57:13.572Z,4.28
2023-05-25T08:59:52.258Z,4.78
2023-05-25T09:02:27.282Z,4.38
2023-05-25T09:04:55.157Z,4.20
2023-05-25T09:07:22.600Z,4.32
2023-05-25T09:09:50.204Z,4.00
2023-05-25T09:12:18.378Z,4.32
2023-05-25T09:14:48.002Z,4.50
2023-05-25T09:17:16.778Z,4.50
2023-05-25T09:19:44.551Z,4.25
2023-05-25T09:22:16.553Z,4.18
2023-05-25T09:27:17.652Z,4.13
2023-05-25T09:29:49.922Z,3.78
2023-05-25T09:32:18.521Z,3.88
2023-05-25T09:34:47.891Z,3.97
2023-05-25T09:37:21.371Z,4.18
2023-05-25T09:39:51.487Z,4.03
2023-05-25T09:42:18.516Z,4.35
2023-05-25T09:44:45.911Z,4.10
2023-05-25T09:47:15.300Z,3.70
2023-05-25T09:49:44.550Z,4.05
2023-05-25T09:52:14.369Z,4.60
2023-05-25T09:54:46.068Z,4.50
2023-05-25T09:57:13.050Z,4.13
2023-05-25T09:59:39.963Z,3.90
2023-05-25T10:02:07.134Z,3.55
2023-05-25T10:04:34.086Z,3.70
2023-05-25T10:07:08.371Z,3.78
2023-05-25T10:09:43.351Z,3.63
2023-05-25T10:12:12.081Z,3.72
2023-05-25T10:14:39.329Z,3.58
2023-05-25T10:17:08.941Z,3.72
2023-05-25T10:19:47.108Z,3.55
2023-05-25T10:22:23.356Z,3.53
2023-05-25T10:25:19.540Z,3.78
2023-05-25T10:27:59.705Z,3.75
2023-05-25T10:30:30.214Z,3.67
2023-05-25T10:32:57.867Z,3.70
2023-05-25T10:35:25.236Z,3.67
2023-05-25T10:37:53.809Z,4.32
2023-05-25T10:40:24.401Z,4.40
2023-05-25T10:42:51.929Z,4.05
2023-05-25T10:45:19.867Z,4.15
2023-05-25T10:47:47.388Z,4.60
2023-05-25T10:50:27.102Z,4.15
2023-05-25T10:53:09.280Z,3.97
2023-05-25T10:55:54.568Z,3.85
2023-05-25T10:58:23.731Z,3.80
2023-05-25T11:01:11.999Z,3.58
2023-05-25T11:03:48.105Z,3.47
2023-05-25T11:06:23.152Z,3.50
2023-05-25T11:09:01.229Z,3.60
2023-05-25T11:11:43.299Z,3.70
2023-05-25T11:14:24.223Z,3.65
2023-05-25T11:17:19.104Z,3.60
2023-05-25T11:19:52.217Z,3.63
2023-05-25T11:22:35.345Z,3.20
2023-05-25T11:25:37.287Z,3.20
2023-05-25T11:28:07.179Z,3.42
2023-05-25T11:30:35.015Z,3.92
2023-05-25T11:33:04.033Z,3.45
2023-05-25T11:35:37.149Z,4.00
2023-05-25T11:38:08.814Z,3.90
2023-05-25T11:40:39.303Z,3.17
2023-05-25T11:43:08.902Z,3.70
2023-05-25T11:45:37.403Z,3.90
2023-05-25T11:48:07.851Z,3.92
2023-05-25T11:50:34.941Z,3.53
2023-05-25T11:53:07.100Z,3.40
2023-05-25T11:55:34.200Z,4.45
2023-05-25T11:58:01.227Z,4.38
2023-05-25T12:00:28.729Z,4.38
2023-05-25T12:02:56.566Z,4.55
2023-05-25T12:05:24.461Z,4.45
2023-05-25T12:07:52.698Z,4.78
2023-05-25T12:10:19.878Z,4.47
2023-05-25T12:12:52.281Z,4.32
2023-05-25T12:15:24.572Z,3.88
2023-05-25T12:17:53.789Z,4.45
2023-05-25T12:20:21.547Z,4.93
2023-05-25T12:22:48.814Z,3.78
2023-05-25T12:25:21.672Z,4.97
2023-05-25T12:27:48.889Z,4.43
2023-05-25T12:30:16.245Z,5.25
2023-05-25T12:33:04.237Z,4.68
2023-05-25T12:35:48.418Z,5.10
2023-05-25T12:38:19.162Z,4.70
2023-05-25T12:40:46.364Z,4.25
2023-05-25T12:43:15.323Z,4.22
2023-05-25T12:45:43.664Z,4.40
2023-05-25T12:48:11.969Z,4.43
2023-05-25T12:50:39.244Z,4.00
2023-05-25T12:53:06.408Z,4.40
2023-05-25T12:55:35.962Z,3.90
2023-05-25T12:58:07.951Z,3.70
2023-05-25T13:00:37.920Z,4.13
2023-05-25T13:03:08.889Z,3.35
2023-05-25T13:05:37.866Z,3.95
2023-05-25T13:08:06.442Z,4.10
2023-05-25T13:10:36.824Z,3.67
2023-05-25T13:13:04.660Z,3.47
2023-05-25T13:15:33.070Z,3.50
2023-05-25T13:18:00.397Z,3.30
2023-05-25T13:20:32.607Z,3.40
2023-05-25T13:22:59.888Z,3.63
2023-05-25T13:25:28.349Z,3.72
2023-05-25T13:27:58.198Z,3.42
2023-05-25T13:30:26.369Z,3.50
2023-05-25T13:32:53.974Z,4.15
2023-05-25T13:35:43.804Z,3.90
2023-05-25T13:38:10.762Z,3.95
2023-05-25T13:40:37.979Z,3.63
2023-05-25T13:43:05.208Z,4.10
2023-05-25T13:45:34.404Z,4.00
2023-05-25T13:48:01.438Z,3.80
2023-05-25T13:50:28.483Z,3.95
2023-05-25T13:52:55.610Z,3.63
2023-05-25T13:55:24.145Z,3.75
2023-05-25T13:57:52.263Z,3.42
2023-05-25T14:00:20.066Z,4.05
2023-05-25T14:02:48.984Z,3.72
2023-05-25T14:05:16.340Z,3.63
2023-05-25T14:07:44.667Z,4.07
2023-05-25T14:10:11.859Z,4.15
2023-05-25T14:12:39.586Z,3.67
2023-05-25T14:15:08.289Z,3.55
2023-05-25T14:17:35.609Z,3.80
2023-05-25T14:20:07.340Z,3.83
2023-05-25T14:22:34.704Z,4.37
2023-05-25T14:25:01.736Z,4.10
2023-05-25T14:27:29.287Z,4.28
2023-05-25T14:29:56.436Z,4.68
2023-05-25T14:32:23.503Z,4.10
2023-05-25T14:34:50.463Z,4.40
2023-05-25T14:37:17.908Z,4.10
2023-05-25T14:39:44.830Z,4.57
2023-05-25T14:42:11.819Z,4.32
2023-05-25T14:44:38.853Z,4.10
2023-05-25T14:47:09.179Z,3.90
2023-05-25T14:49:36.274Z,4.30
2023-05-25T14:52:03.636Z,4.38
2023-05-25T14:54:30.628Z,4.60
2023-05-25T14:56:57.862Z,4.65
2023-05-25T14:59:25.919Z,3.97
2023-05-25T15:01:52.934Z,4.10
2023-05-25T15:04:22.908Z,4.10
2023-05-25T15:06:50.205Z,4.10
2023-05-25T15:09:19.207Z,4.25
2023-05-25T15:11:46.267Z,4.50
2023-05-25T15:14:13.362Z,4.25
2023-05-25T15:16:40.492Z,4.10
2023-05-25T15:19:10.668Z,4.13
2023-05-25T15:21:38.798Z,4.70
2023-05-25T15:24:06.505Z,4.68
2023-05-25T15:26:39.533Z,5.03
2023-05-25T15:29:06.734Z,4.82
2023-05-25T15:31:33.788Z,4.60
2023-05-25T15:34:01.069Z,4.40
2023-05-25T15:36:28.075Z,4.60
2023-05-25T15:38:55.123Z,4.47
2023-05-25T15:41:23.307Z,5.22
2023-05-25T15:44:00.906Z,4.68
2023-05-25T15:46:28.305Z,4.82
2023-05-25T15:48:55.906Z,4.93
2023-05-25T15:51:22.982Z,5.25
2023-05-25T15:53:49.971Z,5.28
2023-05-25T15:56:18.118Z,5.82
2023-05-25T15:58:48.910Z,5.95
2023-05-25T16:01:16.293Z,5.70
2023-05-25T16:03:43.573Z,5.43
2023-05-25T16:06:11.262Z,5.70
2023-05-25T16:08:38.626Z,5.82
2023-05-25T16:11:06.217Z,5.78
2023-05-25T16:13:33.239Z,5.53
2023-05-25T16:16:01.582Z,5.15
2023-05-25T16:18:28.803Z,5.93
2023-05-25T16:20:58.011Z,5.07
2023-05-25T16:23:25.214Z,4.88
2023-05-25T16:25:52.286Z,5.25
2023-05-25T16:28:19.382Z,5.32
2023-05-25T16:30:46.476Z,5.07
2023-05-25T16:33:13.680Z,5.63
2023-05-25T16:35:40.787Z,5.43
2023-05-25T16:38:07.732Z,5.43
2023-05-25T16:40:34.733Z,5.32
2023-05-25T16:43:01.678Z,5.47
2023-05-25T16:45:28.798Z,5.15
2023-05-25T16:47:56.515Z,5.70
2023-05-25T16:50:23.538Z,5.35
2023-05-25T16:52:50.745Z,5.40
2023-05-25T16:55:19.156Z,5.28
2023-05-25T16:57:46.164Z,5.15
2023-05-25T17:00:16.818Z,5.25
2023-05-25T17:02:44.281Z,5.70
2023-05-25T17:05:11.447Z,5.57
2023-05-25T17:07:39.391Z,5.97
2023-05-25T17:10:08.263Z,5.15
2023-05-25T17:12:35.167Z,5.30
2023-05-25T17:15:02.993Z,5.40
2023-05-25T17:17:30.149Z,5.75
2023-05-25T17:19:57.245Z,5.90
2023-05-25T17:22:24.245Z,5.60
2023-05-25T17:24:51.843Z,6.40
2023-05-25T17:27:20.135Z,6.00
2023-05-25T17:29:47.012Z,6.85
2023-05-25T17:32:14.036Z,5.93
2023-05-25T17:34:40.967Z,6.75
2023-05-25T17:37:08.002Z,6.03
2023-05-25T17:39:34.950Z,6.75
2023-05-25T17:42:03.300Z,5.93
2023-05-25T17:44:30.369Z,6.07
2023-05-25T17:46:57.274Z,6.57
2023-05-25T17:49:24.644Z,7.32
2023-05-25T17:51:52.192Z,6.75
2023-05-25T17:54:25.580Z,7.45
2023-05-25T17:56:53.537Z,6.20
2023-05-25T17:59:21.740Z,6.03
2023-05-25T18:01:48.851Z,6.00
2023-05-25T18:04:16.569Z,6.75
2023-05-25T18:06:43.695Z,6.72
2023-05-25T18:09:10.791Z,7.70
2023-05-25T18:11:38.863Z,6.00
2023-05-25T18:14:05.903Z,6.55
2023-05-25T18:16:32.866Z,6.97
2023-05-25T18:19:03.504Z,6.63
2023-05-25T18:21:30.495Z,6.50
2023-05-25T18:23:57.541Z,6.68
2023-05-25T18:26:27.795Z,7.10
2023-05-25T18:29:00.565Z,7.35
2023-05-25T18:33:55.334Z,7.03
2023-05-25T18:36:23.180Z,7.60
2023-05-25T18:38:50.199Z,6.57
2023-05-25T18:41:20.504Z,7.28
2023-05-25T18:43:49.193Z,6.35
2023-05-25T18:46:16.890Z,6.90
2023-05-25T18:48:44.018Z,6.95
2023-05-25T18:51:11.549Z,6.57
2023-05-25T18:53:38.773Z,6.95
2023-05-25T18:56:06.028Z,8.07
2023-05-25T18:58:33.237Z,6.88
2023-05-25T19:01:00.278Z,6.93
2023-05-25T19:03:27.681Z,7.05
2023-05-25T19:05:56.101Z,6.70
2023-05-25T19:08:23.073Z,6.53
2023-05-25T19:10:51.862Z,6.68
2023-05-25T19:13:20.863Z,7.40
2023-05-25T19:15:47.966Z,7.18
2023-05-25T19:18:15.152Z,6.88
2023-05-25T19:20:44.725Z,7.45
2023-05-25T19:23:11.750Z,6.82
2023-05-25T19:25:38.739Z,6.68
2023-05-25T19:28:05.851Z,7.00
2023-05-25T19:30:33.315Z,7.43
2023-05-25T19:33:00.655Z,7.90
2023-05-25T19:35:27.710Z,7.22
2023-05-25T19:37:55.142Z,7.53
2023-05-25T19:40:22.357Z,6.82
2023-05-25T19:42:49.448Z,6.70
2023-05-25T19:45:19.264Z,7.65
2023-05-25T19:47:47.450Z,6.97
2023-05-25T19:50:30.303Z,7.28
2023-05-25T19:52:59.552Z,7.25
2023-05-25T19:55:27.104Z,6.45
2023-05-25T19:57:54.609Z,7.30
2023-05-25T20:00:26.491Z,7.32
2023-05-25T20:02:54.511Z,7.40
2023-05-25T20:05:21.647Z,8.23
2023-05-25T20:07:50.732Z,7.13
2023-05-25T20:10:20.570Z,7.10
2023-05-25T20:12:47.528Z,6.47
2023-05-25T20:15:14.578Z,6.55
2023-05-25T20:17:41.516Z,6.88
2023-05-25T20:20:08.728Z,6.25
2023-05-25T20:22:35.658Z,7.45
2023-05-25T20:25:02.872Z,6.57
2023-05-25T20:27:30.029Z,7.78
2023-05-25T20:29:57.374Z,7.25
2023-05-25T20:32:24.534Z,6.85
2023-05-25T20:34:51.490Z,6.68
2023-05-25T20:37:18.475Z,7.20
2023-05-25T20:39:47.937Z,6.78
2023-05-25T20:42:14.875Z,7.28
2023-05-25T20:44:42.064Z,6.82
2023-05-25T20:47:09.106Z,6.90
2023-05-25T20:49:36.081Z,7.22
2023-05-25T20:52:03.206Z,6.95
2023-05-25T20:54:36.839Z,6.50
2023-05-25T20:57:04.452Z,6.80
2023-05-25T20:59:31.857Z,6.88
2023-05-25T21:01:58.890Z,6.95
2023-05-25T21:04:25.878Z,7.85
2023-05-25T21:06:52.864Z,6.47
2023-05-25T21:09:20.064Z,6.40
2023-05-25T21:11:47.053Z,6.47
2023-05-25T21:14:15.784Z,7.53
2023-05-25T21:16:44.816Z,6.82
2023-05-25T21:19:12.016Z,6.88
2023-05-25T21:21:39.193Z,7.45
2023-05-25T21:24:06.402Z,7.30
2023-05-25T21:26:33.649Z,7.75
2023-05-25T21:29:01.090Z,7.50
2023-05-25T21:31:28.192Z,6.72
2023-05-25T21:33:55.188Z,7.22
2023-05-25T21:36:25.048Z,7.07
2023-05-25T21:38:52.139Z,7.22
2023-05-25T21:41:19.370Z,7.15
2023-05-25T21:43:46.334Z,7.43
2023-05-25T21:46:13.618Z,7.13
2023-05-25T21:48:40.555Z,6.85
2023-05-25T21:51:07.745Z,6.80
2023-05-25T21:53:35.805Z,6.93
2023-05-25T21:56:03.822Z,6.82
2023-05-25T21:58:30.969Z,7.63
2023-05-25T22:00:58.286Z,6.90
2023-05-25T22:03:25.256Z,6.97
2023-05-25T22:05:52.985Z,6.50
2023-05-25T22:08:20.038Z,7.20
2023-05-25T22:10:47.005Z,7.70
2023-05-25T22:13:16.414Z,6.65
2023-05-25T22:15:44.874Z,6.97
2023-05-25T22:18:13.062Z,6.78
2023-05-25T22:20:42.056Z,6.75
2023-05-25T22:23:13.470Z,6.53
2023-05-25T22:25:40.657Z,6.85
2023-05-25T22:28:07.883Z,6.45
2023-05-25T22:30:35.003Z,7.20
2023-05-25T22:33:02.898Z,6.57
2023-05-25T22:35:29.912Z,6.60
2023-05-25T22:37:56.848Z,6.38
2023-05-25T22:40:23.842Z,6.55
2023-05-25T22:42:50.871Z,6.55
2023-05-25T22:45:18.875Z,5.75
2023-05-25T22:47:46.017Z,7.55
2023-05-25T22:50:13.467Z,6.70
2023-05-25T22:52:43.442Z,6.35
2023-05-25T22:55:11.013Z,7.03
2023-05-25T22:57:39.310Z,6.30
2023-05-25T23:00:07.808Z,5.80
2023-05-25T23:02:34.818Z,6.47
2023-05-25T23:05:02.799Z,6.30
2023-05-25T23:07:29.763Z,6.13
2023-05-25T23:09:56.944Z,6.20
2023-05-25T23:12:23.978Z,6.07
2023-05-25T23:14:51.889Z,7.40
2023-05-25T23:17:19.368Z,6.82
2023-05-25T23:19:46.334Z,6.70
2023-05-25T23:22:13.307Z,7.18
2023-05-25T23:24:40.632Z,6.38
2023-05-25T23:27:07.694Z,7.22
2023-05-25T23:29:37.194Z,6.13
2023-05-25T23:32:05.776Z,6.05
2023-05-25T23:34:33.759Z,6.72
2023-05-25T23:37:00.743Z,6.80
2023-05-25T23:39:27.745Z,6.57
2023-05-25T23:41:54.681Z,7.47
2023-05-25T23:44:21.830Z,6.22
2023-05-25T23:46:49.780Z,7.35
2023-05-25T23:49:16.760Z,6.20
2023-05-25T23:51:43.733Z,6.75
2023-05-25T23:54:10.733Z,6.68
2023-05-25T23:56:38.241Z,7.43
2023-05-25T23:59:05.373Z,6.25
